createdAt,value
2023-10-17T07:13:43.896Z,40.30
2023-10-17T07:14:44.206Z,39.79
2023-10-17T07:15:44.484Z,38.89
2023-10-17T07:16:44.778Z,38.40
2023-10-17T07:17:45.109Z,38.09
2023-10-17T07:18:46.384Z,37.90
2023-10-17T07:19:45.715Z,37.79
2023-10-17T07:20:45.815Z,37.79
2023-10-17T07:21:46.101Z,37.70
2023-10-17T07:22:46.433Z,37.79
2023-10-17T07:23:46.557Z,37.59
2023-10-17T07:24:46.836Z,37.70
2023-10-17T07:25:47.087Z,37.79
2023-10-17T07:26:47.363Z,37.99
2023-10-17T07:27:47.817Z,38.09
2023-10-17T07:28:47.912Z,38.09
2023-10-17T07:29:48.137Z,38.09
2023-10-17T07:30:48.447Z,38.78
2023-10-17T07:31:48.644Z,38.87
2023-10-17T07:32:48.964Z,39.28
2023-10-17T07:33:49.191Z,39.28
2023-10-17T07:34:49.428Z,39.67
2023-10-17T07:35:49.693Z,39.87
2023-10-17T07:36:49.984Z,38.98
2023-10-17T07:37:50.264Z,39.18
2023-10-17T07:38:50.500Z,38.57
2023-10-17T07:39:50.762Z,38.68
2023-10-17T07:40:51.019Z,39.28
2023-10-17T07:41:51.278Z,39.87
2023-10-17T07:42:51.588Z,39.48
2023-10-17T07:43:51.816Z,38.98
2023-10-17T07:44:52.088Z,36.08
2023-10-17T07:45:52.344Z,35.99
2023-10-17T07:46:52.664Z,36.01
2023-10-17T07:47:53.047Z,36.23
2023-10-17T07:48:53.103Z,36.44
2023-10-17T07:49:53.312Z,36.46
2023-10-17T07:50:53.568Z,36.78
2023-10-17T07:51:53.812Z,36.90
2023-10-17T07:52:54.071Z,37.12
2023-10-17T07:53:54.311Z,37.44
2023-10-17T07:54:54.571Z,37.65
2023-10-17T07:55:54.810Z,37.87
2023-10-17T07:56:55.093Z,38.20
2023-10-17T07:57:55.319Z,38.49
2023-10-17T07:58:55.587Z,38.92
2023-10-17T07:59:55.840Z,39.42
2023-10-17T08:00:56.159Z,39.64
2023-10-17T08:01:56.284Z,39.94
2023-10-17T08:02:56.582Z,40.04
2023-10-17T08:03:57.430Z,40.62
2023-10-17T08:04:56.907Z,40.42
2023-10-17T08:05:57.146Z,40.33
2023-10-17T08:06:57.411Z,39.90
2023-10-17T08:07:57.720Z,39.80
2023-10-17T08:08:57.967Z,39.58
2023-10-17T08:09:58.238Z,39.47
2023-10-17T08:10:58.471Z,39.47
2023-10-17T08:11:58.732Z,39.54
2023-10-17T08:12:59.004Z,39.34
2023-10-17T08:13:59.257Z,40.03
2023-10-17T08:14:59.576Z,40.03
2023-10-17T08:15:59.728Z,39.21
2023-10-17T08:17:00.004Z,39.01
2023-10-17T08:18:00.228Z,38.70
2023-10-17T08:19:00.534Z,38.89
2023-10-17T08:20:00.641Z,38.89
2023-10-17T08:21:00.907Z,38.99
2023-10-17T08:22:01.727Z,38.97
2023-10-17T08:23:01.417Z,38.87
2023-10-17T08:24:01.684Z,39.07
2023-10-17T08:25:01.961Z,38.85
2023-10-17T08:26:02.265Z,38.75
2023-10-17T08:27:02.496Z,38.75
2023-10-17T08:28:02.827Z,38.95
2023-10-17T08:29:03.060Z,39.05
2023-10-17T08:30:03.305Z,38.83
2023-10-17T08:31:03.609Z,38.53
2023-10-17T08:32:03.896Z,38.33
2023-10-17T08:33:04.179Z,38.33
2023-10-17T08:34:04.387Z,38.53
2023-10-17T08:35:04.644Z,38.42
2023-10-17T08:36:04.883Z,38.11
2023-10-17T08:37:05.175Z,38.21
2023-10-17T08:38:05.532Z,38.21
2023-10-17T08:39:05.665Z,38.31
2023-10-17T08:40:05.915Z,38.31
2023-10-17T08:41:06.195Z,38.31
2023-10-17T08:42:06.407Z,38.09
2023-10-17T08:43:06.630Z,38.40
2023-10-17T08:44:06.865Z,38.40
2023-10-17T08:45:07.155Z,38.20
2023-10-17T08:46:07.380Z,37.99
2023-10-17T08:47:07.631Z,37.99
2023-10-17T08:48:08.077Z,38.40
2023-10-17T08:49:08.071Z,37.99
2023-10-17T08:50:08.305Z,37.98
2023-10-17T08:51:18.315Z,37.88
2023-10-17T08:52:09.820Z,37.77
2023-10-17T08:53:08.982Z,37.68
2023-10-17T08:54:09.215Z,37.68
2023-10-17T08:55:09.450Z,37.58
2023-10-17T08:56:09.692Z,37.48
2023-10-17T08:57:09.959Z,37.48
2023-10-17T08:58:10.171Z,37.36
2023-10-17T08:59:10.429Z,37.36
2023-10-17T09:00:10.597Z,37.56
2023-10-17T09:01:10.827Z,37.86
2023-10-17T09:02:10.931Z,37.86
2023-10-17T09:03:11.180Z,37.76
2023-10-17T09:04:11.396Z,37.56
2023-10-17T09:05:11.621Z,37.36
2023-10-17T09:06:11.941Z,37.26
2023-10-17T09:07:12.152Z,37.26
2023-10-17T09:08:12.400Z,37.24
2023-10-17T09:09:12.702Z,37.24
2023-10-17T09:10:12.896Z,37.14
2023-10-17T09:11:13.153Z,37.34
2023-10-17T09:12:13.462Z,37.34
2023-10-17T09:13:13.588Z,37.24
2023-10-17T09:14:13.827Z,37.24
2023-10-17T09:15:14.174Z,37.24
2023-10-17T09:16:14.270Z,37.24
2023-10-17T09:17:17.202Z,37.24
2023-10-17T09:18:14.742Z,37.14
2023-10-17T09:19:14.976Z,37.44
2023-10-17T09:20:15.197Z,37.64
2023-10-17T09:21:15.457Z,37.34
2023-10-17T09:22:15.666Z,37.24
2023-10-17T09:23:15.905Z,37.12
2023-10-17T09:24:16.162Z,37.12
2023-10-17T09:25:16.376Z,37.23
2023-10-17T09:26:16.608Z,37.32
2023-10-17T09:27:17.728Z,37.23
2023-10-17T09:28:16.998Z,37.12
2023-10-17T09:29:17.233Z,37.02
2023-10-17T09:30:17.529Z,37.02
2023-10-17T09:31:17.734Z,37.12
2023-10-17T09:32:17.842Z,36.93
2023-10-17T09:33:18.219Z,37.02
2023-10-17T09:34:18.329Z,36.93
2023-10-17T09:35:18.593Z,36.93
2023-10-17T09:36:19.468Z,37.12
2023-10-17T09:37:19.127Z,37.02
2023-10-17T09:38:19.233Z,37.02
2023-10-17T09:39:32.043Z,36.93
2023-10-17T09:40:20.693Z,37.02
2023-10-17T09:41:20.501Z,37.02
2023-10-17T09:42:20.236Z,37.02
2023-10-17T09:43:20.428Z,37.01
2023-10-17T09:44:20.642Z,37.01
2023-10-17T09:45:34.227Z,36.91
2023-10-17T09:46:22.162Z,37.10
2023-10-17T09:47:21.376Z,37.10
2023-10-17T09:48:21.682Z,37.10
2023-10-17T09:49:21.899Z,37.10
2023-10-17T09:50:21.887Z,37.01
2023-10-17T09:51:22.585Z,37.10
2023-10-17T09:52:22.393Z,37.10
2023-10-17T09:53:22.766Z,37.01
2023-10-17T09:54:23.192Z,37.01
2023-10-17T09:55:23.544Z,37.10
2023-10-17T09:56:23.971Z,37.01
2023-10-17T09:57:23.281Z,36.91
2023-10-17T09:58:23.537Z,36.91
2023-10-17T09:59:23.741Z,37.21
2023-10-17T10:00:23.977Z,37.21
2023-10-17T10:01:24.238Z,37.10
2023-10-17T10:02:24.444Z,37.30
2023-10-17T10:03:24.744Z,37.21
2023-10-17T10:04:27.761Z,37.30
2023-10-17T10:05:25.236Z,38.50
